sim
Sign-in with your pilot id or email,
or register
Callsign
Passwort

Schedule Details

Flight Number: RYR2175 (1)
Departure: Dortmund Airport (EDLW) at 17:45
Arrival: Thessaloniki International Airport (LGTS) at 20:30
Route: Ryanair Passenger Schedule. Enter filed route here before submitting Pirep.

Weather Information
Getting current METAR information for EDLW 252220Z AUTO 25005KT 9999 FEW160/// 12/08 Q1009
Getting current METAR information for LGTS 252220Z VRB02KT CAVOK 15/12 Q1020 NOSIG

Schedule Frequency

Route Map